Search METAR Data

METAR Data for ENGM:

ENGM 190850Z VRB02KT 9999 SCT038 19/12 Q1019 NOSIG